Ansted, WV

8:16 AM EDT on July 25, 2014 (GMT -0400)
. (KWVGAULE2) Elev 804 ft | 38.17 °N, 81.19 °W | Change Station

Current weather conditions updated 1 minute ago

Overcast
Overcast
68.4 °F
Feels Like 68.4 °F
N
0.0
Wind Variable Wind from South
Gusts 0.0 mph

Today is forecast to be Much Warmer than yesterday.

Today
High -- | Low -- °F
--% Chance of Precip.
Yesterday
High -- | Low -- °F
Precip. -- in
6:21 AM 8:40 PM
Waning Crescent, 2% visible
Pressure 30.09 in
Visibility 8.0 miles
Clouds Overcast 500 ft
Dew Point 64 °F
Humidity 86%
Rainfall 0.00 in
Snow Depth Not available.
UV 0 out of 12
Pollen .60 out of 12
Air Quality Not available.
Flu Activity Not available.
METAR KBKW 251151Z AUTO 10004KT 8SM OVC005 14/13 A3014 RMK AO2 SLP189 70008 T01440128 10150 20139 53014 TSNO

More Conditions Fewer Conditions

Pressure 30.09 in
Visibility 8.0 miles
Clouds Overcast 500 ft
Dew Point 64 °F
Humidity 86%
Rainfall 0.00 in
Snow Depth Not available.
UV 0 out of 12
Pollen .60 out of 12
Air Quality Not available.
Flu Activity Not available.
METAR KBKW 251151Z AUTO 10004KT 8SM OVC005 14/13 A3014 RMK AO2 SLP189 70008 T01440128 10150 20139 53014 TSNO

More Conditions Fewer Conditions

10-Day Weather Forecast

Almanac

Astronomy

Jul. 25, 2014 Rise Set
Actual Time 6:21 AM EDT 8:40 PM EDT
Civil Twilight 5:51 AM EDT 9:09 PM EDT
Nautical Twilight 5:14 AM EDT 9:46 PM EDT
Astronomical Twilight 4:34 AM EDT 10:26 PM EDT
Moon 5:18 AM EDT 7:37 PM EDT
Length of Visible Light 15h 18m
Length of Day
14h 18m
Tomorrow will be 1m 39s shorter.
Waning Crescent, 2% of the Moon is Illuminated
Today
Waning Crescent
Jul 26
New
Aug 3
First Quarter
Aug 10
Full
Aug 17
Last Quarter

Today's Extremes

State Highs State Lows

Community

WunderPhotos

Upload Photos

1,737,300 photos uploaded!

Nearby

Snow Depth

Station Depth Elevation
No new snow has been reported.

Earthquake Activity

City Distance Mag. Time & Date
No recent earthquake activity has been reported nearby.
Minimum magnitude displayed is 2.5.

Coastal Water Temperatures

Place Temperature
No Stations Reporting

Nearby Weather Stations

Station Location Temp. Dew Point Humidity Wind Precip. Elev Updated Type
., Gauley Bridge, WV 68.4 °F 64 °F 86% South  at  0.0 mph 0.00 in / hr 804 ft 8:14 AM EDT Normal
Glen Ferris, WV 65.3 °F 62 °F 89% SE  at  0.0 mph 0.00 in / hr 676 ft 8:00 AM EDT Normal
F.I.T. - Oyler Ave., Oak Hill, WV 59.4 °F 59 °F 99% NW  at  0.0 mph 0.00 in / hr 1988 ft 8:15 AM EDT Rapid Fire
Mt Nebo, WV 59.0 °F 59 °F 99% North  at  0.0 mph 0.00 in / hr 2195 ft 8:15 AM EDT Rapid Fire

Show More Stations Show Fewer Stations